createdAt,value
2017-07-05T00:00:17.338Z,7.58
2017-07-05T00:02:45.652Z,8.40
2017-07-05T00:05:13.982Z,8.06
2017-07-05T00:07:42.298Z,8.56
2017-07-05T00:10:10.625Z,8.02
2017-07-05T00:12:38.936Z,8.54
2017-07-05T00:15:07.275Z,8.46
2017-07-05T00:17:35.585Z,7.62
2017-07-05T00:20:03.901Z,7.98
2017-07-05T00:22:32.234Z,7.64
2017-07-05T00:25:00.548Z,8.84
2017-07-05T00:27:28.888Z,7.48
2017-07-05T00:29:57.202Z,8.40
2017-07-05T00:32:25.550Z,8.36
2017-07-05T00:34:53.856Z,8.54
2017-07-05T00:37:22.195Z,8.50
2017-07-05T00:39:50.523Z,10.48
2017-07-05T00:42:18.867Z,20.90
2017-07-05T00:44:47.185Z,37.38
2017-07-05T00:47:15.509Z,17.90
2017-07-05T00:49:43.846Z,38.68
2017-07-05T00:52:12.168Z,42.72
2017-07-05T00:54:40.508Z,75.92
2017-07-05T00:57:08.821Z,54.98
2017-07-05T00:59:37.156Z,51.88
2017-07-05T01:02:05.470Z,24.02
2017-07-05T01:04:33.821Z,53.72
2017-07-05T01:07:02.147Z,51.24
2017-07-05T01:09:30.487Z,37.14
2017-07-05T01:11:58.806Z,56.26
2017-07-05T01:14:27.116Z,49.06
2017-07-05T01:16:55.458Z,11.22
2017-07-05T01:19:23.782Z,16.24
2017-07-05T01:21:52.125Z,17.46
2017-07-05T01:24:20.441Z,21.74
2017-07-05T01:26:48.780Z,46.92
2017-07-05T01:29:17.095Z,20.82
2017-07-05T01:31:45.434Z,10.04
2017-07-05T01:34:13.754Z,15.66
2017-07-05T01:36:42.112Z,10.30
2017-07-05T01:39:10.426Z,8.86
2017-07-05T01:41:38.736Z,8.78
2017-07-05T01:44:07.074Z,8.32
2017-07-05T01:46:35.393Z,7.48
2017-07-05T01:49:03.729Z,9.14
2017-07-05T01:51:32.037Z,7.78
2017-07-05T01:54:00.372Z,8.60
2017-07-05T01:56:28.684Z,9.02
2017-07-05T01:58:57.018Z,8.24
2017-07-05T02:01:25.331Z,8.22
2017-07-05T02:03:53.679Z,8.02
2017-07-05T02:06:21.995Z,9.00
2017-07-05T02:08:50.303Z,8.38
2017-07-05T02:11:18.642Z,7.70
2017-07-05T02:13:46.957Z,7.84
2017-07-05T02:16:15.300Z,6.90
2017-07-05T02:18:43.665Z,7.74
2017-07-05T02:21:12.005Z,7.70
2017-07-05T02:23:40.317Z,8.00
2017-07-05T02:26:08.652Z,7.90
2017-07-05T02:28:36.979Z,7.80
2017-07-05T02:31:05.324Z,7.84
2017-07-05T02:33:33.645Z,7.94
2017-07-05T02:36:01.957Z,8.40
2017-07-05T02:38:30.301Z,7.42
2017-07-05T02:40:58.621Z,7.64
2017-07-05T02:43:26.959Z,7.18
2017-07-05T02:45:55.282Z,7.74
2017-07-05T02:48:23.706Z,7.82
2017-07-05T02:50:52.017Z,7.70
2017-07-05T02:53:20.356Z,7.50
2017-07-05T02:55:48.673Z,7.52
2017-07-05T02:58:17.017Z,8.16
2017-07-05T03:00:45.341Z,7.80
2017-07-05T03:03:14.672Z,7.64
2017-07-05T03:05:43.010Z,7.92
2017-07-05T03:08:11.325Z,7.20
2017-07-05T03:10:39.665Z,8.32
2017-07-05T03:13:07.984Z,7.66
2017-07-05T03:15:36.317Z,7.28
2017-07-05T03:18:04.627Z,7.00
2017-07-05T03:20:32.960Z,7.58
2017-07-05T03:23:01.281Z,7.24
2017-07-05T03:25:29.631Z,7.28
2017-07-05T03:27:57.946Z,7.60
2017-07-05T03:30:26.260Z,7.00
2017-07-05T03:32:54.613Z,7.80
2017-07-05T03:35:22.931Z,7.40
2017-07-05T03:37:51.264Z,6.56
2017-07-05T03:40:19.590Z,8.00
2017-07-05T03:42:47.930Z,7.74
2017-07-05T03:45:16.239Z,7.90
2017-07-05T03:47:44.574Z,7.34
2017-07-05T03:50:12.902Z,6.98
2017-07-05T03:52:41.247Z,7.82
2017-07-05T03:55:09.561Z,7.24
2017-07-05T03:57:37.876Z,7.90
2017-07-05T04:00:06.250Z,7.66
2017-07-05T04:02:34.622Z,7.40
2017-07-05T04:05:02.957Z,7.88
2017-07-05T04:07:31.268Z,7.68
2017-07-05T04:09:59.602Z,7.28
2017-07-05T04:12:28.953Z,6.22
2017-07-05T04:14:57.293Z,6.22
2017-07-05T04:17:26.628Z,5.92
2017-07-05T04:19:54.969Z,5.48
2017-07-05T04:22:23.388Z,6.14
2017-07-05T04:24:51.698Z,5.42
2017-07-05T04:27:20.091Z,5.80
2017-07-05T04:29:48.402Z,5.84
2017-07-05T04:32:16.821Z,5.96
2017-07-05T04:34:45.130Z,6.06
2017-07-05T04:37:13.483Z,22.50
2017-07-05T04:39:41.824Z,7.32
2017-07-05T04:42:10.161Z,5.96
2017-07-05T04:44:39.409Z,5.04
2017-07-05T04:47:07.741Z,5.46
2017-07-05T04:49:36.058Z,6.10
2017-07-05T04:52:04.365Z,7.48
2017-07-05T04:54:32.753Z,6.34
2017-07-05T04:57:01.064Z,6.18
2017-07-05T04:59:29.397Z,5.52
2017-07-05T05:01:57.709Z,5.36
2017-07-05T05:04:26.056Z,5.40
2017-07-05T05:06:54.364Z,5.42
2017-07-05T05:09:22.710Z,5.14
2017-07-05T05:11:51.034Z,38.80
2017-07-05T05:14:19.388Z,17.42
2017-07-05T05:16:47.706Z,37.90
2017-07-05T05:19:16.093Z,17.86
2017-07-05T05:21:44.424Z,9.20
2017-07-05T05:24:12.752Z,17.62
2017-07-05T05:26:41.092Z,54.18
2017-07-05T05:29:09.419Z,14.00
2017-07-05T05:31:37.770Z,11.96
2017-07-05T05:34:07.085Z,13.28
2017-07-05T05:36:35.429Z,14.34
2017-07-05T05:39:03.745Z,15.62
2017-07-05T05:41:32.073Z,23.86
2017-07-05T05:44:02.461Z,25.42
2017-07-05T05:46:30.782Z,35.36
2017-07-05T05:48:59.128Z,7.34
2017-07-05T05:51:27.445Z,11.00
2017-07-05T05:53:55.785Z,20.52
2017-07-05T05:56:24.101Z,6.18
2017-07-05T05:58:52.444Z,8.54
2017-07-05T06:01:20.764Z,53.04
2017-07-05T06:03:49.087Z,14.28
2017-07-05T06:06:17.426Z,19.32
2017-07-05T06:08:45.744Z,10.94
2017-07-05T06:11:14.081Z,23.96
2017-07-05T06:13:42.392Z,7.52
2017-07-05T06:16:10.766Z,8.90
2017-07-05T06:18:39.077Z,6.28
2017-07-05T06:21:07.413Z,7.72
2017-07-05T06:23:35.797Z,6.74
2017-07-05T06:26:04.155Z,10.64
2017-07-05T06:28:32.488Z,7.00
2017-07-05T06:31:00.031Z,6.50
2017-07-05T06:33:28.392Z,6.68
2017-07-05T06:35:56.708Z,7.22
2017-07-05T06:38:25.015Z,6.18
2017-07-05T06:40:53.346Z,6.80
2017-07-05T06:43:21.674Z,6.62
2017-07-05T06:45:50.003Z,7.06
2017-07-05T06:48:18.420Z,6.24
2017-07-05T06:50:46.769Z,6.60
2017-07-05T06:53:15.092Z,6.86
2017-07-05T06:55:43.401Z,6.22
2017-07-05T06:58:11.760Z,6.74
2017-07-05T07:00:40.073Z,7.02
2017-07-05T07:03:08.407Z,6.24
2017-07-05T07:05:37.704Z,6.12
2017-07-05T07:08:06.046Z,6.32
2017-07-05T07:10:34.359Z,6.00
2017-07-05T07:13:02.672Z,5.48
2017-07-05T07:15:31.033Z,5.62
2017-07-05T07:17:59.342Z,5.42
2017-07-05T07:20:27.685Z,5.94
2017-07-05T07:22:56.002Z,5.74
2017-07-05T07:25:24.348Z,5.18
2017-07-05T07:27:52.661Z,5.08
2017-07-05T07:30:21.006Z,4.70
2017-07-05T07:32:49.343Z,5.00
2017-07-05T07:35:17.657Z,5.18
2017-07-05T07:37:45.993Z,5.00
2017-07-05T07:40:14.302Z,4.22
2017-07-05T07:42:42.638Z,4.76
2017-07-05T07:45:10.956Z,4.02
2017-07-05T07:47:39.335Z,4.30
2017-07-05T07:50:07.656Z,4.26
2017-07-05T07:52:35.996Z,3.78
2017-07-05T07:55:04.308Z,3.80
2017-07-05T07:57:32.626Z,3.60
2017-07-05T08:00:00.968Z,3.94
2017-07-05T08:02:29.284Z,3.68
2017-07-05T08:04:57.616Z,3.54
2017-07-05T08:07:25.927Z,3.80
2017-07-05T08:09:54.263Z,3.78
2017-07-05T08:12:22.592Z,4.04
2017-07-05T08:14:50.932Z,4.08
2017-07-05T08:17:19.243Z,4.24
2017-07-05T08:19:47.561Z,3.84
2017-07-05T08:22:15.924Z,3.50
2017-07-05T08:24:44.238Z,4.62
2017-07-05T08:27:12.571Z,3.56
2017-07-05T08:29:40.885Z,3.90
2017-07-05T08:32:09.225Z,3.60
2017-07-05T08:34:37.542Z,4.62
2017-07-05T08:37:05.878Z,4.60
2017-07-05T08:39:34.187Z,4.94
2017-07-05T08:42:02.492Z,4.04
2017-07-05T08:44:30.828Z,4.16
2017-07-05T08:46:59.167Z,3.96
2017-07-05T08:49:27.501Z,4.46
2017-07-05T08:51:55.824Z,4.52
2017-07-05T08:54:24.162Z,4.30
2017-07-05T08:56:53.457Z,3.62
2017-07-05T08:59:21.802Z,4.38
2017-07-05T09:01:50.123Z,4.30
2017-07-05T09:04:18.437Z,4.52
2017-07-05T09:06:46.776Z,4.02
2017-07-05T09:09:15.088Z,3.80
2017-07-05T09:11:43.435Z,4.12
2017-07-05T09:14:11.749Z,3.90
2017-07-05T09:16:40.084Z,3.50
2017-07-05T09:19:08.394Z,3.72
2017-07-05T09:21:36.746Z,3.78
2017-07-05T09:24:05.057Z,3.76
2017-07-05T09:26:33.368Z,3.80
2017-07-05T09:29:01.706Z,3.40
2017-07-05T09:31:30.015Z,3.40
2017-07-05T09:33:58.351Z,3.66
2017-07-05T09:36:26.666Z,3.80
2017-07-05T09:38:55.009Z,3.58
2017-07-05T09:41:23.322Z,4.20
2017-07-05T09:43:51.658Z,3.72
2017-07-05T09:46:20.059Z,3.54
2017-07-05T09:48:48.406Z,3.52
2017-07-05T09:51:17.840Z,3.94
2017-07-05T09:53:46.157Z,3.86
2017-07-05T09:56:14.505Z,3.48
2017-07-05T09:58:42.818Z,3.22
2017-07-05T10:01:11.270Z,3.58
2017-07-05T10:03:39.584Z,3.50
2017-07-05T10:06:08.022Z,3.40
2017-07-05T10:08:36.382Z,3.38
2017-07-05T10:11:04.718Z,3.80
2017-07-05T10:13:33.030Z,3.12
2017-07-05T10:16:01.405Z,3.82
2017-07-05T10:18:29.737Z,3.40
2017-07-05T10:20:57.281Z,3.90
2017-07-05T10:23:25.620Z,3.52
2017-07-05T10:25:53.932Z,3.68
2017-07-05T10:28:22.266Z,3.94
2017-07-05T10:30:50.587Z,3.16
2017-07-05T10:33:18.924Z,3.48
2017-07-05T10:35:47.247Z,3.04
2017-07-05T10:38:15.560Z,3.48
2017-07-05T10:40:43.892Z,4.02
2017-07-05T10:43:12.204Z,3.08
2017-07-05T10:45:40.547Z,3.48
2017-07-05T10:48:08.858Z,3.56
2017-07-05T10:50:37.190Z,3.28
2017-07-05T10:53:05.505Z,3.48
2017-07-05T10:55:33.844Z,3.42
2017-07-05T10:58:02.157Z,3.48
2017-07-05T11:00:30.471Z,3.34
2017-07-05T11:02:58.817Z,3.88
2017-07-05T11:05:27.135Z,3.56
2017-07-05T11:07:55.478Z,3.42
2017-07-05T11:10:23.790Z,3.22
2017-07-05T11:12:52.134Z,3.62
2017-07-05T11:15:20.455Z,3.70
2017-07-05T11:17:48.770Z,3.48
2017-07-05T11:20:17.800Z,3.50
2017-07-05T11:22:46.125Z,3.08
2017-07-05T11:25:14.465Z,3.46
2017-07-05T11:27:42.782Z,3.44
2017-07-05T11:30:11.117Z,3.62
2017-07-05T11:32:39.432Z,3.60
2017-07-05T11:35:07.766Z,3.36
2017-07-05T11:37:36.088Z,3.52
2017-07-05T11:40:04.400Z,3.40
2017-07-05T11:42:32.738Z,3.52
2017-07-05T11:45:01.061Z,3.44
2017-07-05T11:47:29.395Z,3.72
2017-07-05T11:49:57.705Z,3.40
2017-07-05T11:52:26.048Z,3.46
2017-07-05T11:54:54.359Z,3.56
2017-07-05T11:57:22.707Z,3.42
2017-07-05T11:59:51.019Z,3.92
2017-07-05T12:02:19.333Z,4.08
2017-07-05T12:04:47.670Z,3.42
2017-07-05T12:07:15.987Z,3.86
2017-07-05T12:09:44.319Z,3.58
2017-07-05T12:12:12.634Z,3.52
2017-07-05T12:14:40.974Z,3.82
2017-07-05T12:17:09.285Z,3.60
2017-07-05T12:19:37.638Z,3.56
2017-07-05T12:22:05.957Z,3.50
2017-07-05T12:24:34.282Z,3.76
2017-07-05T12:27:02.615Z,3.92
2017-07-05T12:29:30.936Z,3.44
2017-07-05T12:31:59.269Z,3.70
2017-07-05T12:34:27.580Z,3.40
2017-07-05T12:36:55.929Z,3.70
2017-07-05T12:39:24.239Z,3.58
2017-07-05T12:41:52.556Z,3.84
2017-07-05T12:44:20.955Z,4.14
2017-07-05T12:46:49.294Z,3.80
2017-07-05T12:49:17.648Z,3.92
2017-07-05T12:51:45.997Z,3.78
2017-07-05T12:54:14.355Z,3.40
2017-07-05T12:56:42.664Z,3.76
2017-07-05T12:59:11.177Z,3.74
2017-07-05T13:01:38.748Z,3.26
2017-07-05T13:04:07.101Z,3.70
2017-07-05T13:06:35.502Z,3.28
2017-07-05T13:09:03.817Z,3.28
2017-07-05T13:11:32.144Z,3.46
2017-07-05T13:14:00.474Z,3.32
2017-07-05T13:16:28.806Z,3.82
2017-07-05T13:18:57.120Z,3.82
2017-07-05T13:21:25.455Z,3.70
2017-07-05T13:23:53.777Z,3.30
2017-07-05T13:26:22.104Z,3.08
2017-07-05T13:28:50.444Z,3.24
2017-07-05T13:31:18.756Z,3.20
2017-07-05T13:33:47.086Z,3.10
2017-07-05T13:36:15.403Z,3.48
2017-07-05T13:38:43.742Z,3.52
2017-07-05T13:41:12.052Z,3.58
2017-07-05T13:43:40.394Z,3.58
2017-07-05T13:46:08.812Z,3.18
2017-07-05T13:48:37.119Z,3.18
2017-07-05T13:51:05.450Z,3.40
2017-07-05T13:53:33.763Z,2.92
2017-07-05T13:56:02.109Z,3.84
2017-07-05T13:58:30.420Z,3.42
2017-07-05T14:00:58.809Z,3.24
2017-07-05T14:03:27.176Z,3.32
2017-07-05T14:05:55.514Z,3.64
2017-07-05T14:08:23.832Z,3.40
2017-07-05T14:10:52.185Z,3.38
2017-07-05T14:13:20.552Z,3.66
2017-07-05T14:15:48.869Z,3.20
2017-07-05T14:18:17.204Z,3.48
2017-07-05T14:20:45.519Z,4.12
2017-07-05T14:23:13.861Z,14.00
2017-07-05T14:25:42.169Z,3.40
2017-07-05T14:28:10.507Z,4.36
2017-07-05T14:30:38.828Z,3.42
2017-07-05T14:33:07.144Z,3.48
2017-07-05T14:35:35.482Z,3.40
2017-07-05T14:38:03.794Z,3.50
2017-07-05T14:40:32.139Z,4.24
2017-07-05T14:43:00.463Z,3.44
2017-07-05T14:45:28.798Z,3.40
2017-07-05T14:47:57.122Z,3.44
2017-07-05T14:50:25.464Z,3.58
2017-07-05T14:52:53.797Z,3.56
2017-07-05T14:55:22.113Z,3.70
2017-07-05T14:57:49.692Z,3.26
2017-07-05T15:00:18.001Z,3.54
2017-07-05T15:02:46.338Z,3.40
2017-07-05T15:05:14.652Z,3.32
2017-07-05T15:07:42.986Z,3.78
2017-07-05T15:10:11.295Z,3.42
2017-07-05T15:12:39.641Z,3.70
2017-07-05T15:15:07.955Z,3.80
2017-07-05T15:17:35.497Z,3.56
2017-07-05T15:20:03.834Z,3.52
2017-07-05T15:22:32.153Z,3.40
2017-07-05T15:25:01.092Z,3.46
2017-07-05T15:27:29.480Z,3.58
2017-07-05T15:29:57.822Z,3.48
2017-07-05T15:32:26.137Z,3.50
2017-07-05T15:34:54.476Z,3.44
2017-07-05T15:37:22.792Z,3.30
2017-07-05T15:39:51.104Z,3.50
2017-07-05T15:42:19.448Z,3.30
2017-07-05T15:44:47.804Z,3.38
2017-07-05T15:47:16.144Z,3.22
2017-07-05T15:49:44.466Z,3.30
2017-07-05T15:52:12.801Z,3.22
2017-07-05T15:54:41.109Z,3.60
2017-07-05T15:57:09.441Z,3.30
2017-07-05T15:59:37.763Z,3.40
2017-07-05T16:02:06.075Z,3.40
2017-07-05T16:04:34.411Z,3.40
2017-07-05T16:07:02.719Z,3.38
2017-07-05T16:09:31.106Z,3.20
2017-07-05T16:11:59.411Z,3.44
2017-07-05T16:14:27.753Z,4.00
2017-07-05T16:16:56.065Z,3.80
2017-07-05T16:19:24.414Z,3.82
2017-07-05T16:21:52.725Z,3.76
2017-07-05T16:24:21.032Z,3.80
2017-07-05T16:26:49.527Z,4.06
2017-07-05T16:29:17.839Z,4.02
2017-07-05T16:31:46.197Z,4.38
2017-07-05T16:34:14.506Z,4.64
2017-07-05T16:36:42.841Z,4.78
2017-07-05T16:39:11.176Z,4.38
2017-07-05T16:41:39.585Z,4.92
2017-07-05T16:44:07.906Z,4.78
2017-07-05T16:46:36.289Z,5.32
2017-07-05T16:49:04.633Z,5.32
2017-07-05T16:51:32.977Z,4.86
2017-07-05T16:54:01.314Z,5.10
2017-07-05T16:56:29.636Z,4.88
2017-07-05T16:58:58.070Z,5.78
2017-07-05T17:01:26.383Z,4.84
2017-07-05T17:03:54.757Z,5.44
2017-07-05T17:06:23.073Z,5.48
2017-07-05T17:08:51.408Z,5.68
2017-07-05T17:11:19.774Z,5.54
2017-07-05T17:13:48.088Z,5.72
2017-07-05T17:16:16.434Z,5.60
2017-07-05T17:18:44.748Z,5.40
2017-07-05T17:21:13.082Z,5.92
2017-07-05T17:23:41.404Z,36.16
2017-07-05T17:26:09.723Z,7.24
2017-07-05T17:28:38.075Z,5.78
2017-07-05T17:31:06.389Z,5.88
2017-07-05T17:33:34.733Z,5.70
2017-07-05T17:36:03.045Z,5.64
2017-07-05T17:38:31.394Z,5.82
2017-07-05T17:40:59.745Z,6.14
2017-07-05T17:43:28.058Z,6.82
2017-07-05T17:45:56.479Z,5.78
2017-07-05T17:48:24.985Z,5.78
2017-07-05T17:50:53.331Z,6.06
2017-07-05T17:53:21.658Z,5.94
2017-07-05T17:55:49.999Z,5.28
2017-07-05T17:58:18.313Z,5.66
2017-07-05T18:00:46.661Z,5.88
2017-07-05T18:03:15.011Z,6.24
2017-07-05T18:05:43.324Z,7.24
2017-07-05T18:08:11.652Z,7.06
2017-07-05T18:10:39.970Z,6.96
2017-07-05T18:13:08.313Z,8.12
2017-07-05T18:15:36.632Z,6.58
2017-07-05T18:18:04.966Z,5.70
2017-07-05T18:20:33.287Z,6.98
2017-07-05T18:23:01.640Z,9.80
2017-07-05T18:25:29.955Z,7.24
2017-07-05T18:27:58.317Z,7.56
2017-07-05T18:30:26.657Z,7.32
2017-07-05T18:32:55.241Z,6.88
2017-07-05T18:35:23.576Z,7.32
2017-07-05T18:37:51.908Z,7.72
2017-07-05T18:40:20.245Z,8.26
2017-07-05T18:42:48.556Z,7.76
2017-07-05T18:45:16.905Z,7.74
2017-07-05T18:47:45.217Z,8.36
2017-07-05T18:50:13.536Z,7.92
2017-07-05T18:52:41.868Z,8.50
2017-07-05T18:55:10.192Z,8.50
2017-07-05T18:57:38.525Z,7.82
2017-07-05T19:00:06.092Z,7.46
2017-07-05T19:02:34.430Z,8.32
2017-07-05T19:05:02.748Z,8.02
2017-07-05T19:07:31.098Z,8.38
2017-07-05T19:09:59.421Z,7.98
2017-07-05T19:12:27.745Z,8.46
2017-07-05T19:14:56.098Z,8.72
2017-07-05T19:17:24.414Z,7.68
2017-07-05T19:19:52.766Z,8.28
2017-07-05T19:22:21.133Z,8.04
2017-07-05T19:24:49.479Z,7.80
2017-07-05T19:27:17.788Z,8.68
2017-07-05T19:29:45.378Z,8.68
2017-07-05T19:32:13.700Z,8.10
2017-07-05T19:34:42.023Z,8.72
2017-07-05T19:37:10.367Z,7.44
2017-07-05T19:39:38.684Z,8.02
2017-07-05T19:42:07.030Z,8.18
2017-07-05T19:44:35.360Z,8.66
2017-07-05T19:47:03.703Z,8.74
2017-07-05T19:49:32.026Z,8.98
2017-07-05T19:52:00.368Z,9.30
2017-07-05T19:54:28.705Z,10.06
2017-07-05T19:56:57.191Z,10.92
2017-07-05T19:59:25.537Z,18.22
2017-07-05T20:01:53.870Z,13.72
2017-07-05T20:04:22.207Z,11.34
2017-07-05T20:06:50.520Z,9.04
2017-07-05T20:09:18.865Z,9.74
2017-07-05T20:11:47.190Z,10.30
2017-07-05T20:14:15.548Z,10.32
2017-07-05T20:16:43.883Z,9.80
2017-07-05T20:19:12.218Z,11.28
2017-07-05T20:21:40.595Z,9.62
2017-07-05T20:24:08.911Z,8.48
2017-07-05T20:26:36.553Z,17.24
2017-07-05T20:29:04.878Z,12.38
2017-07-05T20:31:33.225Z,10.64
2017-07-05T20:34:01.627Z,10.54
2017-07-05T20:36:30.050Z,10.58
2017-07-05T20:38:58.400Z,10.04
2017-07-05T20:41:26.810Z,10.66
2017-07-05T20:43:55.222Z,9.92
2017-07-05T20:46:23.642Z,8.52
2017-07-05T20:48:52.052Z,9.48
2017-07-05T20:51:20.499Z,9.42
2017-07-05T20:53:49.184Z,10.10
2017-07-05T20:56:17.547Z,9.86
2017-07-05T20:58:45.900Z,9.76
2017-07-05T21:01:14.222Z,9.78
2017-07-05T21:03:42.538Z,9.40
2017-07-05T21:06:10.882Z,9.46
2017-07-05T21:08:39.205Z,9.64
2017-07-05T21:11:07.537Z,9.56
2017-07-05T21:13:35.851Z,10.00
2017-07-05T21:16:04.191Z,10.30
2017-07-05T21:18:32.515Z,10.42
2017-07-05T21:21:00.869Z,10.20
2017-07-05T21:23:29.183Z,9.80
2017-07-05T21:25:57.502Z,10.22
2017-07-05T21:28:25.845Z,11.08
2017-07-05T21:30:54.156Z,10.24
2017-07-05T21:33:22.489Z,9.78
2017-07-05T21:35:50.811Z,10.50
2017-07-05T21:38:19.144Z,9.62
2017-07-05T21:40:47.516Z,9.36
2017-07-05T21:43:15.848Z,24.46
2017-07-05T21:45:44.196Z,22.82
2017-07-05T21:48:12.521Z,22.48
2017-07-05T21:50:40.868Z,22.06
2017-07-05T21:53:09.188Z,16.66
2017-07-05T21:55:37.528Z,35.14
2017-07-05T21:58:05.910Z,22.88
2017-07-05T22:00:34.265Z,39.80
2017-07-05T22:03:02.581Z,40.58
2017-07-05T22:05:30.937Z,41.10
2017-07-05T22:07:59.270Z,46.60
2017-07-05T22:10:27.637Z,20.34
2017-07-05T22:12:55.964Z,16.38
2017-07-05T22:15:24.289Z,16.54
2017-07-05T22:17:52.637Z,18.96
2017-07-05T22:20:21.034Z,16.36
2017-07-05T22:22:49.373Z,14.88
2017-07-05T22:25:17.692Z,15.52
2017-07-05T22:27:46.041Z,13.80
2017-07-05T22:30:14.362Z,14.86
2017-07-05T22:32:42.731Z,11.80
2017-07-05T22:35:11.047Z,12.76
2017-07-05T22:37:39.385Z,11.10
2017-07-05T22:40:07.733Z,11.36
2017-07-05T22:42:36.077Z,10.98
2017-07-05T22:45:04.409Z,10.52
2017-07-05T22:47:32.730Z,12.72
2017-07-05T22:50:01.081Z,12.60
2017-07-05T22:52:29.404Z,13.64
2017-07-05T22:54:57.750Z,11.76
2017-07-05T22:57:26.065Z,13.20
2017-07-05T22:59:54.385Z,13.98
2017-07-05T23:02:22.739Z,12.70
2017-07-05T23:04:51.059Z,12.52
2017-07-05T23:07:19.400Z,11.96
2017-07-05T23:09:47.727Z,11.62
2017-07-05T23:12:16.071Z,11.20
2017-07-05T23:14:44.386Z,11.26
2017-07-05T23:17:12.736Z,12.90
2017-07-05T23:19:41.057Z,11.96
2017-07-05T23:22:09.379Z,12.08
2017-07-05T23:24:37.725Z,11.30
2017-07-05T23:27:06.048Z,12.72
2017-07-05T23:29:34.393Z,11.78
2017-07-05T23:32:02.723Z,11.64
2017-07-05T23:34:31.066Z,10.86
2017-07-05T23:36:59.394Z,11.04
2017-07-05T23:39:27.747Z,12.08
2017-07-05T23:41:55.300Z,12.12
2017-07-05T23:44:23.617Z,11.98
2017-07-05T23:46:51.957Z,12.60
2017-07-05T23:49:20.272Z,12.28
2017-07-05T23:51:48.609Z,11.60
2017-07-05T23:54:16.924Z,11.58
2017-07-05T23:56:45.274Z,12.36
2017-07-05T23:59:13.590Z,12.96
